createdAt,value
2022-11-25T00:00:41.285Z,100936.72
2022-11-25T00:03:10.705Z,100937.59
2022-11-25T00:05:40.234Z,100943.34
2022-11-25T00:08:09.657Z,100939.47
2022-11-25T00:10:39.043Z,100933.38
2022-11-25T00:13:11.051Z,100928.28
2022-11-25T00:15:40.470Z,100917.50
2022-11-25T00:18:09.973Z,100928.50
2022-11-25T00:20:40.371Z,100913.78
2022-11-25T00:23:09.791Z,100920.41
2022-11-25T00:25:39.249Z,100916.34
2022-11-25T00:28:11.255Z,100910.69
2022-11-25T00:30:40.683Z,100913.28
2022-11-25T00:33:10.411Z,100912.41
2022-11-25T00:35:40.915Z,100909.06
2022-11-25T00:38:10.379Z,100913.53
2022-11-25T00:40:39.785Z,100915.31
2022-11-25T00:43:24.854Z,100914.63
2022-11-25T00:45:54.270Z,100918.94
2022-11-25T00:48:23.737Z,100914.63
2022-11-25T00:50:53.138Z,100923.28
2022-11-25T00:53:22.795Z,100919.53
2022-11-25T00:56:04.847Z,100921.06
2022-11-25T00:58:37.508Z,100919.63
2022-11-25T01:01:07.207Z,100915.97
2022-11-25T01:03:37.174Z,100920.50
2022-11-25T01:06:08.021Z,100917.44
2022-11-25T01:08:38.186Z,100911.31
2022-11-25T01:11:09.744Z,100918.94
2022-11-25T01:13:41.944Z,100924.47
2022-11-25T01:16:14.336Z,100935.31
2022-11-25T01:18:44.116Z,100929.63
2022-11-25T01:21:14.923Z,100933.22
2022-11-25T01:23:45.242Z,100932.78
2022-11-25T01:26:16.399Z,100927.16
2022-11-25T01:28:48.782Z,100922.16
2022-11-25T01:31:19.982Z,100918.50
2022-11-25T01:33:51.474Z,100910.19
2022-11-25T01:36:21.952Z,100908.97
2022-11-25T01:38:53.532Z,100922.25
2022-11-25T01:41:24.413Z,100916.16
2022-11-25T01:44:11.823Z,100910.84
2022-11-25T01:47:00.347Z,100914.81
2022-11-25T01:49:33.654Z,100913.47
2022-11-25T01:52:06.734Z,100905.28
2022-11-25T01:54:39.120Z,100892.53
2022-11-25T01:57:13.317Z,100893.50
2022-11-25T01:59:48.357Z,100913.13
2022-11-25T02:02:18.098Z,100909.69
2022-11-25T02:04:47.741Z,100906.34
2022-11-25T02:07:21.120Z,100911.69
2022-11-25T02:09:51.519Z,100910.91
2022-11-25T02:12:21.575Z,100917.59
2022-11-25T02:14:54.831Z,100921.19
2022-11-25T02:17:24.290Z,100922.50
2022-11-25T02:20:01.529Z,100920.41
2022-11-25T02:22:38.563Z,100924.78
2022-11-25T02:25:17.800Z,100926.34
2022-11-25T02:27:49.472Z,100923.66
2022-11-25T02:30:19.083Z,100919.44
2022-11-25T02:32:48.912Z,100915.25
2022-11-25T02:35:31.057Z,100916.56
2022-11-25T02:38:04.064Z,100921.66
2022-11-25T02:40:37.928Z,100930.97
2022-11-25T02:43:07.396Z,100924.44
2022-11-25T02:45:44.568Z,100935.44
2022-11-25T02:48:14.271Z,100942.69
2022-11-25T02:50:43.799Z,100938.16
2022-11-25T02:53:13.507Z,100930.84
2022-11-25T02:55:45.556Z,100935.06
2022-11-25T02:58:15.342Z,100929.44
2022-11-25T03:00:45.759Z,100932.09
2022-11-25T03:03:15.808Z,100938.72
2022-11-25T03:05:45.341Z,100946.69
2022-11-25T03:08:14.804Z,100953.56
2022-11-25T03:10:46.872Z,100954.91
2022-11-25T03:13:16.569Z,100944.59
2022-11-25T03:15:45.980Z,100955.56
2022-11-25T03:18:15.395Z,100953.94
2022-11-25T03:20:44.858Z,100959.25
2022-11-25T03:23:14.524Z,100955.03
2022-11-25T03:25:46.556Z,100956.03
2022-11-25T03:28:16.074Z,100952.31
2022-11-25T03:30:45.985Z,100960.34
2022-11-25T03:33:15.503Z,100953.56
2022-11-25T03:35:44.903Z,100958.97
2022-11-25T03:38:14.295Z,100958.97
2022-11-25T03:40:47.365Z,100971.25
2022-11-25T03:43:17.046Z,100966.28
2022-11-25T03:45:47.557Z,100970.84
2022-11-25T03:48:17.249Z,100967.72
2022-11-25T03:50:46.658Z,100962.75
2022-11-25T03:53:16.091Z,100959.88
2022-11-25T03:55:50.400Z,100965.31
2022-11-25T03:58:19.855Z,100981.06
2022-11-25T04:00:49.265Z,100980.16
2022-11-25T04:03:18.646Z,100981.91
2022-11-25T04:05:48.079Z,100982.69
2022-11-25T04:08:17.446Z,100981.69
2022-11-25T04:10:49.392Z,100984.47
2022-11-25T04:13:16.250Z,100982.94
2022-11-25T04:15:48.632Z,100981.50
2022-11-25T04:18:19.065Z,100981.84
2022-11-25T04:20:49.130Z,100981.38
2022-11-25T04:23:18.520Z,100983.47
2022-11-25T04:25:52.017Z,100978.84
2022-11-25T04:28:21.540Z,100972.75
2022-11-25T04:30:50.975Z,100967.91
2022-11-25T04:33:20.417Z,100968.00
2022-11-25T04:35:50.398Z,100958.97
2022-11-25T04:38:19.789Z,100969.81
2022-11-25T04:40:51.822Z,100971.63
2022-11-25T04:43:21.319Z,100968.06
2022-11-25T04:46:12.921Z,100974.69
2022-11-25T04:48:40.931Z,100976.47
2022-11-25T04:51:10.385Z,100972.28
2022-11-25T04:53:39.802Z,100972.44
2022-11-25T04:56:12.374Z,100974.22
2022-11-25T04:58:54.230Z,100982.91
2022-11-25T05:01:23.746Z,100983.56
2022-11-25T05:03:57.279Z,100968.88
2022-11-25T05:06:27.156Z,100971.19
2022-11-25T05:08:56.609Z,100971.19
2022-11-25T05:11:28.665Z,100966.91
2022-11-25T05:13:58.027Z,100972.66
2022-11-25T05:16:27.644Z,100968.78
2022-11-25T05:18:58.154Z,100976.78
2022-11-25T05:21:28.092Z,100987.78
2022-11-25T05:23:57.868Z,100989.88
2022-11-25T05:26:29.881Z,100994.53
2022-11-25T05:28:59.265Z,100997.56
2022-11-25T05:31:28.686Z,101002.34
2022-11-25T05:33:58.104Z,101000.91
2022-11-25T05:36:27.540Z,101004.03
2022-11-25T05:38:56.940Z,101008.75
2022-11-25T05:41:28.996Z,101009.06
2022-11-25T05:43:58.364Z,100999.84
2022-11-25T05:46:28.092Z,101004.09
2022-11-25T05:48:57.850Z,101009.47
2022-11-25T05:51:28.267Z,101009.41
2022-11-25T05:53:58.133Z,101014.25
2022-11-25T05:56:30.129Z,101008.88
2022-11-25T05:59:00.458Z,101002.97
2022-11-25T06:01:29.897Z,101004.41
2022-11-25T06:04:02.375Z,101014.31
2022-11-25T06:06:32.283Z,101006.06
2022-11-25T06:09:01.787Z,101009.81
2022-11-25T06:11:34.184Z,100996.81
2022-11-25T06:14:03.705Z,100993.59
2022-11-25T06:16:33.195Z,100991.63
2022-11-25T06:19:05.582Z,100990.19
2022-11-25T06:21:35.070Z,100984.69
2022-11-25T06:24:04.427Z,100982.72
2022-11-25T06:26:36.581Z,100988.22
2022-11-25T06:29:05.996Z,100988.66
2022-11-25T06:31:35.516Z,100975.44
2022-11-25T06:34:06.557Z,100993.28
2022-11-25T06:36:35.982Z,100995.28
2022-11-25T06:39:05.394Z,100993.44
2022-11-25T06:41:37.449Z,100996.78
2022-11-25T06:44:07.222Z,100989.91
2022-11-25T06:46:36.672Z,100989.34
2022-11-25T06:49:06.064Z,100993.13
2022-11-25T06:51:35.615Z,100988.56
2022-11-25T06:54:05.104Z,100986.78
2022-11-25T06:56:37.148Z,100989.78
2022-11-25T06:59:06.712Z,100993.13
2022-11-25T07:01:36.222Z,100991.16
2022-11-25T07:04:07.233Z,100985.59
2022-11-25T07:06:36.867Z,100983.97
2022-11-25T07:09:07.254Z,100985.97
2022-11-25T07:11:41.131Z,100990.44
2022-11-25T07:14:12.915Z,100984.00
2022-11-25T07:16:44.160Z,100988.75
2022-11-25T07:19:14.661Z,100987.63
2022-11-25T07:21:45.740Z,100979.84
2022-11-25T07:24:16.878Z,100986.72
2022-11-25T07:26:48.948Z,101004.69
2022-11-25T07:32:10.904Z,101009.22
2022-11-25T07:34:40.724Z,101016.22
2022-11-25T07:37:10.218Z,101012.81
2022-11-25T07:39:39.876Z,101023.97
2022-11-25T07:42:12.062Z,101027.53
2022-11-25T07:44:41.424Z,101033.28
2022-11-25T07:47:10.819Z,101027.41
2022-11-25T07:49:40.338Z,101024.34
2022-11-25T07:52:09.762Z,101012.81
2022-11-25T07:54:39.229Z,101013.34
2022-11-25T07:57:08.643Z,101013.78
2022-11-25T07:59:41.630Z,101013.66
2022-11-25T08:02:12.277Z,101011.00
2022-11-25T08:04:41.693Z,101010.34
2022-11-25T08:07:11.199Z,101008.03
2022-11-25T08:09:40.691Z,101021.78
2022-11-25T08:12:10.216Z,101017.78
2022-11-25T08:14:42.244Z,101013.84
2022-11-25T08:17:14.343Z,101021.84
2022-11-25T08:19:43.784Z,101022.94
2022-11-25T08:22:13.198Z,101012.28
2022-11-25T08:24:42.654Z,101020.84
2022-11-25T08:27:12.381Z,101016.19
2022-11-25T08:29:44.390Z,101022.50
2022-11-25T08:32:13.900Z,101023.59
2022-11-25T08:34:45.275Z,101036.63
2022-11-25T08:37:14.756Z,101023.41
2022-11-25T08:39:52.227Z,101021.66
2022-11-25T08:42:22.577Z,101016.09
2022-11-25T08:44:57.470Z,101014.50
2022-11-25T08:47:27.227Z,101005.31
2022-11-25T08:49:57.540Z,101011.50
2022-11-25T08:52:28.983Z,101012.28
2022-11-25T08:54:58.439Z,101012.97
2022-11-25T08:57:27.896Z,101021.28
2022-11-25T08:59:59.975Z,101015.84
2022-11-25T09:02:29.553Z,101026.28
2022-11-25T09:04:58.965Z,101028.53
2022-11-25T09:07:30.821Z,101024.28
2022-11-25T09:10:01.525Z,101028.25
2022-11-25T09:12:30.983Z,101033.72
2022-11-25T09:15:03.260Z,101032.47
2022-11-25T09:17:34.577Z,101044.47
2022-11-25T09:20:05.234Z,101048.94
2022-11-25T09:22:34.693Z,101051.50
2022-11-25T09:25:04.155Z,101064.63
2022-11-25T09:27:34.213Z,101059.81
2022-11-25T09:30:06.941Z,101073.25
2022-11-25T09:32:36.425Z,101071.69
2022-11-25T09:35:06.672Z,101075.38
2022-11-25T09:37:36.075Z,101077.81
2022-11-25T09:40:05.511Z,101081.59
2022-11-25T09:42:53.416Z,101080.03
2022-11-25T09:45:40.977Z,101082.16
2022-11-25T09:48:33.669Z,101084.03
2022-11-25T09:51:11.980Z,101080.28
2022-11-25T09:53:46.157Z,101084.81
2022-11-25T09:56:24.594Z,101079.25
2022-11-25T09:58:56.919Z,101077.84
2022-11-25T10:01:31.578Z,101075.13
2022-11-25T10:04:04.587Z,101072.94
2022-11-25T10:06:35.710Z,101065.38
2022-11-25T10:09:07.635Z,101063.72
2022-11-25T10:11:47.866Z,101061.25
2022-11-25T10:14:22.977Z,101064.25
2022-11-25T10:16:59.455Z,101062.94
2022-11-25T10:19:39.896Z,101070.94
2022-11-25T10:22:23.342Z,101069.16
2022-11-25T10:24:54.682Z,101069.69
2022-11-25T10:27:28.314Z,101070.25
2022-11-25T10:30:05.338Z,101067.50
2022-11-25T10:32:43.727Z,101061.16
2022-11-25T10:35:21.704Z,101063.38
2022-11-25T10:37:54.995Z,101058.03
2022-11-25T10:40:24.564Z,101061.03
2022-11-25T10:42:54.541Z,101056.94
2022-11-25T10:45:28.123Z,101058.56
2022-11-25T10:48:19.754Z,101056.22
2022-11-25T10:51:00.892Z,101057.75
2022-11-25T10:53:31.113Z,101056.44
2022-11-25T10:56:03.684Z,101060.88
2022-11-25T10:58:35.235Z,101057.09
2022-11-25T11:01:07.951Z,101053.31
2022-11-25T11:03:39.988Z,101067.91
2022-11-25T11:06:09.448Z,101067.34
2022-11-25T11:08:43.567Z,101063.22
2022-11-25T11:11:19.492Z,101068.91
2022-11-25T11:13:50.654Z,101067.59
2022-11-25T11:16:32.412Z,101062.13
2022-11-25T11:19:04.556Z,101078.41
2022-11-25T11:21:36.386Z,101074.19
2022-11-25T11:24:17.422Z,101075.91
2022-11-25T11:26:46.850Z,101070.44
2022-11-25T11:29:19.602Z,101065.19
2022-11-25T11:31:51.894Z,101074.41
2022-11-25T11:34:38.486Z,101067.31
2022-11-25T11:37:23.152Z,101068.03
2022-11-25T11:40:19.521Z,101069.63
2022-11-25T11:42:59.675Z,101080.47
2022-11-25T11:45:44.098Z,101076.59
2022-11-25T11:48:19.180Z,101081.69
2022-11-25T11:50:53.226Z,101083.91
2022-11-25T11:53:25.912Z,101100.16
2022-11-25T11:59:00.430Z,101131.09
2022-11-25T12:01:41.432Z,101141.19
2022-11-25T12:04:18.955Z,101146.59
2022-11-25T12:07:01.229Z,101153.91
2022-11-25T12:09:32.788Z,101169.41
2022-11-25T12:12:06.082Z,101171.31
2022-11-25T12:14:39.360Z,101176.97
2022-11-25T12:17:12.890Z,101178.34
2022-11-25T12:19:47.256Z,101186.69
2022-11-25T12:22:23.691Z,101177.34
2022-11-25T12:24:56.810Z,101183.59
2022-11-25T12:27:30.701Z,101184.66
2022-11-25T12:30:04.977Z,101192.06
2022-11-25T12:33:05.287Z,101195.94
2022-11-25T12:35:43.519Z,101195.25
2022-11-25T12:38:24.008Z,101197.03
2022-11-25T12:41:03.325Z,101198.53
2022-11-25T12:43:39.366Z,101189.78
2022-11-25T12:46:16.626Z,101197.09
2022-11-25T12:48:46.123Z,101182.22
2022-11-25T12:51:26.372Z,101192.38
2022-11-25T12:54:06.640Z,101195.88
2022-11-25T12:56:49.237Z,101199.13
2022-11-25T12:59:34.156Z,101197.50
2022-11-25T13:02:23.118Z,101199.47
2022-11-25T13:08:03.639Z,101213.63
2022-11-25T13:10:52.256Z,101202.56
2022-11-25T13:10:55.633Z,101199.63
2022-11-25T13:13:30.180Z,101213.94
2022-11-25T13:16:02.022Z,101205.44
2022-11-25T13:18:34.034Z,101205.59
2022-11-25T13:21:10.422Z,101217.97
2022-11-25T13:23:56.203Z,101218.16
2022-11-25T13:26:51.248Z,101201.81
2022-11-25T13:30:03.162Z,101208.53
2022-11-25T13:32:35.047Z,101201.41
2022-11-25T13:35:40.245Z,101192.38
2022-11-25T13:38:25.095Z,101191.38
2022-11-25T13:41:00.563Z,101193.16
2022-11-25T13:43:32.852Z,101179.81
2022-11-25T13:46:02.332Z,101177.31
2022-11-25T13:48:34.364Z,101168.38
2022-11-25T13:51:19.209Z,101165.91
2022-11-25T13:53:54.884Z,101168.78
2022-11-25T13:56:31.800Z,101168.00
2022-11-25T13:59:40.328Z,101174.53
2022-11-25T14:02:38.292Z,101172.13
2022-11-25T14:05:24.266Z,101169.69
2022-11-25T14:07:59.432Z,101169.41
2022-11-25T14:10:45.717Z,101170.47
2022-11-25T14:13:46.447Z,101171.56
2022-11-25T14:16:45.787Z,101184.16
2022-11-25T14:19:51.879Z,101181.34
2022-11-25T14:22:41.762Z,101172.16
2022-11-25T14:25:18.092Z,101187.25
2022-11-25T14:27:49.107Z,101193.56
2022-11-25T14:30:19.834Z,101196.91
2022-11-25T14:32:57.790Z,101207.16
2022-11-25T14:35:31.180Z,101218.22
2022-11-25T14:38:03.225Z,101213.75
2022-11-25T14:40:37.300Z,101220.41
2022-11-25T14:43:09.784Z,101221.53
2022-11-25T14:45:39.426Z,101217.03
2022-11-25T14:48:22.862Z,101226.75
2022-11-25T14:50:58.799Z,101228.47
2022-11-25T14:53:28.433Z,101226.81
2022-11-25T14:56:00.786Z,101235.38
2022-11-25T14:58:30.329Z,101237.13
2022-11-25T15:01:04.126Z,101238.66
2022-11-25T15:03:37.241Z,101239.28
2022-11-25T15:06:08.344Z,101240.75
2022-11-25T15:08:42.713Z,101239.53
2022-11-25T15:11:16.316Z,101231.28
2022-11-25T15:13:46.900Z,101232.63
2022-11-25T15:16:18.321Z,101235.28
2022-11-25T15:18:53.378Z,101234.94
2022-11-25T15:21:26.079Z,101234.25
2022-11-25T15:23:55.869Z,101233.41
2022-11-25T15:26:32.505Z,101228.47
2022-11-25T15:29:03.371Z,101223.94
2022-11-25T15:31:34.456Z,101229.09
2022-11-25T15:34:08.288Z,101236.56
2022-11-25T15:36:37.898Z,101235.09
2022-11-25T15:39:18.658Z,101234.56
2022-11-25T15:41:49.787Z,101254.34
2022-11-25T15:44:23.320Z,101262.03
2022-11-25T15:47:05.083Z,101254.63
2022-11-25T15:49:38.414Z,101260.06
2022-11-25T15:52:09.891Z,101260.81
2022-11-25T15:54:43.015Z,101270.31
2022-11-25T15:57:18.866Z,101269.91
2022-11-25T15:59:53.187Z,101269.69
2022-11-25T16:02:39.052Z,101269.31
2022-11-25T16:05:27.859Z,101277.00
2022-11-25T16:08:19.346Z,101277.91
2022-11-25T16:10:55.356Z,101278.69
2022-11-25T16:13:35.580Z,101282.50
2022-11-25T16:16:13.263Z,101281.53
2022-11-25T16:18:46.306Z,101289.00
2022-11-25T16:21:20.106Z,101291.28
2022-11-25T16:23:52.066Z,101293.94
2022-11-25T16:26:27.970Z,101294.81
2022-11-25T16:28:58.643Z,101290.59
2022-11-25T16:31:29.016Z,101296.50
2022-11-25T16:34:00.230Z,101309.53
2022-11-25T16:36:32.398Z,101303.63
2022-11-25T16:39:01.888Z,101301.06
2022-11-25T16:41:31.407Z,101310.31
2022-11-25T16:44:04.783Z,101309.34
2022-11-25T16:46:37.358Z,101311.09
2022-11-25T16:49:11.163Z,101306.97
2022-11-25T16:51:43.268Z,101315.84
2022-11-25T16:54:12.911Z,101310.94
2022-11-25T16:56:43.668Z,101317.63
2022-11-25T16:59:17.888Z,101316.75
2022-11-25T17:01:48.759Z,101313.28
2022-11-25T17:04:19.971Z,101320.41
2022-11-25T17:07:24.277Z,101317.97
2022-11-25T17:09:41.778Z,101321.28
2022-11-25T17:12:16.672Z,101318.03
2022-11-25T17:14:46.481Z,101326.75
2022-11-25T17:17:24.644Z,101332.06
2022-11-25T17:19:54.710Z,101339.06
2022-11-25T17:22:37.546Z,101338.50
2022-11-25T17:25:09.254Z,101340.16
2022-11-25T17:27:38.789Z,101340.16
2022-11-25T17:30:10.694Z,101341.75
2022-11-25T17:32:40.232Z,101351.09
2022-11-25T17:35:18.542Z,101351.78
2022-11-25T17:37:51.870Z,101364.03
2022-11-25T17:40:21.384Z,101362.47
2022-11-25T17:42:51.332Z,101363.66
2022-11-25T17:45:22.563Z,101367.16
2022-11-25T17:47:52.367Z,101372.78
2022-11-25T17:50:23.369Z,101373.25
2022-11-25T17:52:55.552Z,101375.66
2022-11-25T17:55:25.545Z,101376.75
2022-11-25T17:57:55.295Z,101385.41
2022-11-25T18:00:25.216Z,101393.31
2022-11-25T18:02:54.768Z,101391.91
2022-11-25T18:05:26.619Z,101405.63
2022-11-25T18:07:58.732Z,101408.50
2022-11-25T18:10:29.776Z,101423.31
2022-11-25T18:12:59.881Z,101419.56
2022-11-25T18:15:31.556Z,101429.03
2022-11-25T18:18:05.037Z,101427.84
2022-11-25T18:20:34.831Z,101429.94
2022-11-25T18:23:09.607Z,101443.84
2022-11-25T18:25:39.273Z,101440.19
2022-11-25T18:28:09.521Z,101446.09
2022-11-25T18:30:41.167Z,101449.38
2022-11-25T18:33:14.089Z,101448.16
2022-11-25T18:35:43.884Z,101462.19
2022-11-25T18:38:17.146Z,101462.75
2022-11-25T18:40:51.989Z,101467.09
2022-11-25T18:43:25.752Z,101464.34
2022-11-25T18:45:57.267Z,101467.47
2022-11-25T18:48:28.584Z,101467.47
2022-11-25T18:50:58.723Z,101474.19
2022-11-25T18:53:30.792Z,101472.78
2022-11-25T18:56:00.220Z,101477.84
2022-11-25T18:58:32.663Z,101474.59
2022-11-25T19:01:05.513Z,101473.69
2022-11-25T19:03:35.256Z,101475.59
2022-11-25T19:06:04.735Z,101473.13
2022-11-25T19:08:36.785Z,101485.06
2022-11-25T19:11:07.468Z,101474.59
2022-11-25T19:13:38.186Z,101483.28
2022-11-25T19:16:11.819Z,101486.41
2022-11-25T19:18:41.571Z,101497.47
2022-11-25T19:21:12.791Z,101494.22
2022-11-25T19:23:45.320Z,101495.13
2022-11-25T19:26:17.451Z,101498.38
2022-11-25T19:28:50.020Z,101498.47
2022-11-25T19:31:20.507Z,101496.69
2022-11-25T19:33:53.344Z,101499.25
2022-11-25T19:36:27.495Z,101499.25
2022-11-25T19:39:00.382Z,101500.16
2022-11-25T19:41:29.917Z,101513.28
2022-11-25T19:43:59.546Z,101516.34
2022-11-25T19:46:46.457Z,101518.97
2022-11-25T19:49:21.331Z,101525.69
2022-11-25T19:51:51.524Z,101525.81
2022-11-25T19:54:23.792Z,101537.72
2022-11-25T19:56:53.360Z,101532.59
2022-11-25T19:59:22.809Z,101531.72
2022-11-25T20:01:53.372Z,101538.75
2022-11-25T20:04:24.166Z,101544.88
2022-11-25T20:06:53.739Z,101547.31
2022-11-25T20:09:25.878Z,101552.25
2022-11-25T20:11:58.744Z,101560.03
2022-11-25T20:14:28.240Z,101568.31
2022-11-25T20:16:57.809Z,101569.63
2022-11-25T20:19:27.344Z,101577.56
2022-11-25T20:21:56.874Z,101584.50
2022-11-25T20:24:29.068Z,101589.03
2022-11-25T20:26:59.479Z,101584.03
2022-11-25T20:29:30.585Z,101592.88
2022-11-25T20:32:01.085Z,101593.66
2022-11-25T20:34:31.346Z,101599.56
2022-11-25T20:37:01.383Z,101598.44
2022-11-25T20:39:33.615Z,101608.03
2022-11-25T20:42:03.031Z,101610.84
2022-11-25T20:44:32.540Z,101616.06
2022-11-25T20:47:02.032Z,101622.31
2022-11-25T20:49:33.245Z,101620.53
2022-11-25T20:52:02.773Z,101626.53
2022-11-25T20:54:36.544Z,101626.00
2022-11-25T20:57:06.504Z,101632.59
2022-11-25T20:59:36.200Z,101632.69
2022-11-25T21:02:05.784Z,101638.69
2022-11-25T21:04:35.525Z,101643.75
2022-11-25T21:07:05.991Z,101648.75
2022-11-25T21:09:38.769Z,101646.19
2022-11-25T21:12:12.450Z,101652.44
2022-11-25T21:14:45.381Z,101651.75
2022-11-25T21:17:14.982Z,101659.34
2022-11-25T21:19:44.579Z,101661.13
2022-11-25T21:22:16.592Z,101670.41
2022-11-25T21:24:48.710Z,101672.16
2022-11-25T21:27:19.970Z,101670.28
2022-11-25T21:29:49.495Z,101684.78
2022-11-25T21:32:23.300Z,101680.78
2022-11-25T21:34:53.184Z,101686.69
2022-11-25T21:37:30.083Z,101689.25
2022-11-25T21:40:02.532Z,101692.56
2022-11-25T21:42:32.946Z,101689.81
2022-11-25T21:45:02.465Z,101697.50
2022-11-25T21:47:32.358Z,101701.97
2022-11-25T21:50:01.984Z,101704.97
2022-11-25T21:52:31.514Z,101708.44
2022-11-25T21:55:03.638Z,101712.66
2022-11-25T21:57:34.360Z,101717.22
2022-11-25T22:00:03.795Z,101712.66
2022-11-25T22:02:33.334Z,101722.25
2022-11-25T22:05:02.904Z,101713.34
2022-11-25T22:07:32.690Z,101725.59
2022-11-25T22:10:05.916Z,101727.16
2022-11-25T22:12:41.023Z,101738.66
2022-11-25T22:15:16.936Z,101747.09
2022-11-25T22:17:46.795Z,101755.09
2022-11-25T22:20:29.074Z,101748.53
2022-11-25T22:22:58.884Z,101746.28
2022-11-25T22:25:33.104Z,101751.22
2022-11-25T22:28:02.641Z,101750.28
2022-11-25T22:30:32.096Z,101755.50
2022-11-25T22:33:03.524Z,101755.50
2022-11-25T22:35:33.071Z,101764.63
2022-11-25T22:38:03.106Z,101763.88
2022-11-25T22:40:35.159Z,101764.06
2022-11-25T22:43:04.620Z,101775.34
2022-11-25T22:45:36.122Z,101781.81
2022-11-25T22:48:07.887Z,101777.13
2022-11-25T22:50:37.380Z,101785.09
2022-11-25T22:53:11.634Z,101788.94
2022-11-25T22:55:44.288Z,101785.78
2022-11-25T22:58:15.005Z,101790.03
2022-11-25T23:00:46.187Z,101788.25
2022-11-25T23:03:20.421Z,101794.66
2022-11-25T23:05:50.934Z,101792.59
2022-11-25T23:08:23.011Z,101799.31
2022-11-25T23:10:55.465Z,101803.84
2022-11-25T23:13:25.441Z,101798.50
2022-11-25T23:15:56.683Z,101802.81
2022-11-25T23:18:30.921Z,101807.38
2022-11-25T23:21:03.821Z,101818.31
2022-11-25T23:23:33.969Z,101817.44
2022-11-25T23:26:05.952Z,101820.63
2022-11-25T23:28:35.437Z,101826.56
2022-11-25T23:31:05.223Z,101832.16
2022-11-25T23:33:39.717Z,101835.50
2022-11-25T23:36:11.901Z,101832.75
2022-11-25T23:38:45.044Z,101840.72
2022-11-25T23:41:20.375Z,101850.94
2022-11-25T23:43:49.841Z,101855.81
2022-11-25T23:46:21.561Z,101863.75
2022-11-25T23:48:55.398Z,101858.63
2022-11-25T23:51:25.490Z,101862.06
2022-11-25T23:53:55.536Z,101856.94
2022-11-25T23:56:28.638Z,101861.19
2022-11-25T23:58:58.232Z,101870.44
